Date,TemperatureHighF,TemperatureAvgF,TemperatureLowF,DewpointHighF,DewpointAvgF,DewpointLowF,HumidityHigh,HumidityAvg,HumidityLow,PressureMaxIn,PressureMinIn,WindSpeedMaxMPH,WindSpeedAvgMPH,GustSpeedMaxMPH,PrecipitationSumIn
2014-1-1,31,26,23,17,12,9,69,55,43,30.43,30.22,25,5,25,0.00
2014-1-2,31,28,23,30,26,14,97,92,60,30.37,29.69,36,10,36,0.00
2014-1-3,27,14,5,27,9,-6,97,82,56,30.46,29.52,33,11,33,0.00
2014-1-4,37,20,3,32,14,-6,92,76,59,30.57,30.33,35,8,35,0.00
2014-1-5,47,35,27,46,32,23,98,88,78,30.37,29.94,21,4,21,0.02
2014-1-6,53,44,30,52,43,20,100,95,64,29.94,29.37,30,8,30,0.09
2014-1-7,31,17,10,24,4,-5,83,57,44,30.32,29.56,35,10,35,0.00
2014-1-8,24,16,9,10,4,-4,69,58,41,30.54,30.32,28,7,28,0.00
2014-1-9,30,23,18,17,11,7,76,60,44,30.69,30.48,17,3,17,0.00
2014-1-10,41,33,25,40,30,13,98,87,60,30.65,30.37,14,2,14,0.06
2014-1-11,52,48,42,52,48,42,100,98,96,30.20,29.37,40,8,40,0.45
2014-1-12,47,42,36,47,35,26,100,77,57,30.02,29.36,31,7,31,0.05
2014-1-13,46,39,33,44,35,27,96,86,69,30.19,29.97,20,5,20,0.00
2014-1-14,49,46,42,49,45,40,99,97,91,29.97,29.61,22,4,22,0.90
2014-1-15,43,39,36,42,38,35,98,96,84,30.08,29.80,11,2,11,0.00
2014-1-16,40,38,36,40,38,35,99,99,98,29.95,29.85,9,1,9,0.00
2014-1-17,42,38,34,38,35,31,99,91,76,30.03,29.94,23,4,23,0.00
2014-1-18,40,37,34,40,36,33,98,96,89,29.95,29.60,14,3,14,0.40
2014-1-19,37,33,30,33,28,25,95,82,68,29.77,29.63,43,14,43,0.00
2014-1-20,45,38,31,34,29,17,85,70,53,29.88,29.55,29,11,32,0.00
2014-1-21,31,21,15,20,12,3,94,73,46,30.07,29.77,23,7,23,0.00
2014-1-22,21,14,10,20,9,-1,95,81,59,29.91,29.59,32,10,32,0.00
2014-1-23,24,14,6,7,1,-3,70,57,39,30.22,29.91,22,6,23,0.00
2014-1-24,22,14,9,15,2,-3,74,57,42,30.30,30.13,33,6,33,0.00
2014-1-25,39,32,22,33,26,11,94,79,60,30.12,29.39,37,13,37,0.00
2014-1-26,29,22,17,24,12,2,83,65,43,29.94,29.40,28,7,29,0.00
2014-1-27,44,36,24,40,29,3,94,76,35,30.02,29.61,31,8,31,0.00
2014-1-28,24,18,14,7,-2,-8,51,39,27,30.35,30.00,19,5,24,0.00
2014-1-29,25,19,14,16,9,-1,91,67,43,30.27,30.03,20,5,22,0.08
2014-1-30,32,23,14,27,11,2,82,61,42,30.48,30.24,22,4,22,0.01
2014-1-31,36,34,32,34,27,18,93,78,49,30.25,30.07,23,5,23,0.01
2014-2-1,42,36,33,34,27,22,94,70,45,30.39,30.07,11,1,11,0.00
2014-2-2,42,38,36,39,36,35,98,95,80,30.07,29.91,16,3,17,0.00
2014-2-3,41,34,30,36,32,29,98,92,80,30.30,30.07,10,2,11,0.10
2014-2-4,35,28,22,30,26,20,97,89,73,30.48,30.29,14,0,14,0.39
2014-2-5,33,31,29,33,30,27,98,96,92,30.36,29.59,20,5,20,0.04
2014-2-6,30,26,22,27,21,18,94,82,70,30.28,29.91,17,4,17,0.07
2014-2-7,33,26,19,21,16,13,81,67,46,30.32,30.19,17,4,17,0.17
2014-2-8,30,26,20,21,14,7,79,61,40,30.33,30.14,23,4,23,0.03
2014-2-9,31,28,23,27,20,10,95,74,52,30.16,29.98,17,3,17,0.06
2014-2-10,31,25,20,25,16,10,95,70,48,30.25,29.93,21,5,21,0.01
2014-2-11,27,20,15,11,8,6,77,60,44,30.44,30.24,16,4,16,0.00
2014-2-12,28,19,8,21,11,0,83,70,60,30.59,30.41,20,3,20,0.01
2014-2-13,40,34,25,39,33,21,99,95,82,30.42,28.98,32,8,32,1.74
2014-2-14,39,35,32,38,31,25,99,83,68,29.79,28.82,40,9,40,0.11
2014-2-15,34,32,29,32,29,25,98,89,73,29.89,29.36,21,3,21,0.00
2014-2-16,33,27,22,29,22,16,98,80,64,29.99,29.41,14,2,14,0.29
2014-2-17,30,22,15,16,8,3,73,55,36,30.40,29.98,23,6,23,0.02
2014-2-18,36,26,17,36,20,6,98,80,62,30.40,29.87,18,4,26,0.30
2014-2-19,43,34,25,41,31,22,98,91,76,30.15,29.68,23,4,23,0.51
2014-2-20,46,37,33,35,33,30,99,86,56,30.27,29.85,18,4,18,0.12
2014-2-21,52,40,33,52,39,32,100,98,96,30.18,29.73,40,6,40,0.25
2014-2-22,41,39,34,40,35,33,99,88,74,30.05,29.89,33,10,33,0.01
2014-2-23,44,39,36,40,36,34,96,91,80,30.05,29.80,21,5,21,0.00
2014-2-24,42,35,25,36,21,9,94,59,40,30.00,29.77,28,6,28,0.01
2014-2-25,31,25,22,15,12,8,67,56,44,30.04,29.90,28,6,28,0.00
2014-2-26,32,24,18,23,11,-2,90,57,36,30.00,29.79,26,5,26,0.00
2014-2-27,30,22,12,28,10,-3,100,61,42,29.94,29.62,32,6,32,0.00
2014-2-28,27,20,11,7,0,-5,60,42,25,30.47,30.18,23,4,23,0.00
2014-3-1,36,28,16,33,19,-1,93,68,44,30.48,30.13,17,5,17,0.00
2014-3-2,36,35,33,32,29,26,92,80,67,30.13,29.95,15,3,15,0.00
2014-3-3,34,24,17,28,13,3,90,64,46,30.29,29.95,19,6,19,0.00
2014-3-4,29,22,12,17,9,2,68,57,44,30.38,30.26,17,4,17,0.00
2014-3-5,34,28,22,25,20,14,85,71,55,30.44,30.22,20,5,20,0.00
2014-3-6,28,23,17,18,15,10,83,72,60,30.61,30.44,17,6,22,0.00
2014-3-7,36,29,20,30,25,17,90,82,69,30.52,29.91,11,4,13,0.00
2014-3-8,53,38,30,35,32,28,100,80,42,29.92,29.69,14,3,14,0.00
2014-3-9,44,36,32,29,20,13,78,52,32,29.95,29.85,21,3,21,0.00
2014-3-10,39,34,30,35,29,15,95,80,46,29.92,29.68,19,5,19,0.02
2014-3-11,59,43,36,40,36,30,95,78,40,29.73,29.53,18,4,18,0.00
2014-3-12,54,46,38,50,41,32,98,83,60,29.73,28.96,28,7,30,0.46
2014-3-13,47,26,18,46,20,4,99,79,50,29.94,28.94,33,9,33,0.02
2014-3-14,38,28,18,34,18,2,87,67,48,30.22,29.94,30,9,30,0.01
2014-3-15,51,41,38,39,36,32,94,83,54,29.99,29.70,24,7,24,0.02
2014-3-16,42,34,30,32,16,8,70,46,34,30.19,29.90,24,4,24,0.00
2014-3-17,32,25,21,18,13,2,80,60,39,30.17,30.03,22,6,22,0.00
2014-3-18,36,29,21,24,20,14,87,70,54,30.36,30.16,16,5,17,0.00
2014-3-19,41,34,27,36,29,23,94,81,70,30.39,29.98,17,4,17,0.00
2014-3-20,53,46,37,46,39,30,98,80,45,30.01,29.63,24,5,24,0.37
2014-3-21,46,40,35,32,26,23,72,57,43,30.06,29.78,22,6,22,0.00
2014-3-22,50,40,30,42,31,23,86,71,43,30.09,29.69,33,6,33,0.00
2014-3-23,44,38,31,32,22,9,83,55,27,30.02,29.89,23,5,23,0.00
2014-3-24,35,27,18,12,5,0,54,39,26,30.17,30.02,29,6,29,0.00
2014-3-25,35,30,23,20,13,6,60,50,36,30.18,29.86,16,3,20,0.00
2014-3-26,36,31,25,26,17,4,94,59,34,30.00,29.50,47,16,47,0.00
2014-3-27,37,30,22,32,14,3,82,52,30,30.34,29.99,26,10,29,0.00
2014-3-28,47,42,37,42,39,32,97,90,81,30.30,30.02,21,10,22,0.05
2014-3-29,48,42,38,47,41,37,98,96,84,30.24,29.92,19,5,19,1.09
2014-3-30,56,46,38,56,45,37,99,98,96,29.92,29.55,34,7,34,2.66
2014-3-31,40,37,35,37,34,33,100,91,79,29.97,29.63,32,9,32,0.06
2014-4-1,47,40,37,35,32,30,92,73,55,30.12,29.96,24,6,24,0.00
2014-4-2,45,40,34,38,35,32,96,84,59,30.15,30.05,16,4,16,0.00
2014-4-3,60,44,36,38,34,24,97,73,29,30.13,30.05,10,3,14,0.00
2014-4-4,46,41,38,38,35,32,94,80,68,30.16,29.84,20,5,20,0.15
2014-4-5,53,45,39,45,38,27,98,80,51,29.96,29.64,23,4,23,0.33
2014-4-6,46,40,35,39,31,26,92,71,46,30.21,29.96,28,6,28,0.00
2014-4-7,50,44,39,44,38,34,97,81,58,30.27,29.88,17,3,17,0.14
2014-4-8,50,46,43,50,45,40,100,98,79,29.89,29.41,24,8,24,0.94
2014-4-9,60,49,43,42,34,18,82,60,32,29.97,29.53,22,5,22,0.01
2014-4-10,47,43,37,42,32,16,87,65,34,30.22,29.97,27,8,27,0.00
2014-4-11,49,46,44,46,43,41,94,89,83,30.07,29.97,28,9,28,0.00
2014-4-12,67,52,44,48,42,30,96,74,26,30.25,29.97,18,5,23,0.00
2014-4-13,57,49,43,50,44,40,97,84,56,30.28,30.09,21,6,21,0.00
2014-4-14,54,50,46,51,49,46,98,94,88,30.11,29.97,28,11,28,0.00
2014-4-15,58,54,47,56,52,46,98,94,88,29.97,29.61,37,16,37,0.40
2014-4-16,47,40,34,46,29,21,100,67,39,30.59,29.69,31,9,31,0.74
2014-4-17,42,37,34,31,28,22,81,70,58,30.77,30.59,26,9,26,0.00
2014-4-18,45,40,33,38,34,30,92,80,71,30.64,30.25,14,4,22,0.00
2014-4-19,61,49,40,44,39,31,92,70,35,30.40,30.18,19,5,19,0.00
2014-4-20,51,45,39,38,33,24,88,63,39,30.52,30.35,21,4,21,0.00
2014-4-21,52,46,38,46,42,37,95,87,73,30.35,29.89,13,3,13,0.00
2014-4-22,53,49,47,49,46,45,97,90,83,29.90,29.51,19,6,19,0.06
2014-4-23,55,50,45,54,46,36,99,88,60,29.60,29.39,36,6,36,1.03
2014-4-24,59,50,43,36,29,21,66,46,31,29.91,29.59,33,11,33,0.00
2014-4-25,59,48,43,41,35,29,84,61,35,30.01,29.88,16,6,20,0.00
2014-4-26,48,46,43,43,41,39,92,82,72,29.88,29.75,14,3,14,0.05
2014-4-27,48,45,43,43,41,39,94,87,79,30.04,29.85,15,2,15,0.04
2014-4-28,56,48,41,42,40,37,86,74,56,30.19,29.98,33,8,33,0.00
2014-4-29,46,44,42,42,38,36,92,81,72,30.52,30.19,31,10,31,0.00
2014-4-30,47,44,42,46,40,37,97,86,79,30.52,30.16,20,8,22,0.53
2014-5-1,58,51,47,57,50,46,99,98,97,30.16,29.67,25,8,29,1.19
2014-5-2,61,53,46,52,47,44,99,81,58,29.83,29.67,24,7,24,0.08
2014-5-3,60,52,46,49,46,42,96,79,54,29.89,29.76,17,5,17,0.00
2014-5-4,59,53,49,50,45,39,94,75,57,29.76,29.55,30,10,30,0.02
2014-5-5,66,56,50,47,44,40,80,63,45,29.86,29.63,20,4,20,0.00
2014-5-6,62,54,46,47,42,36,85,66,41,30.04,29.84,21,3,21,0.00
2014-5-7,62,52,45,46,40,34,85,65,40,30.21,30.04,22,6,22,0.00
2014-5-8,57,51,49,52,49,45,98,90,75,30.21,30.11,16,6,16,0.00
2014-5-9,59,54,51,57,52,46,98,92,69,30.25,30.09,17,2,17,0.00
2014-5-10,61,56,53,60,55,52,100,94,90,30.10,29.81,25,10,25,0.00
2014-5-11,72,60,54,59,52,44,98,77,40,30.04,29.82,25,7,25,0.40
2014-5-12,64,60,56,57,50,42,90,70,48,30.13,30.03,25,6,25,0.00
2014-5-13,57,52,47,54,46,42,92,80,68,30.33,30.03,26,9,26,0.00
2014-5-14,60,54,47,54,50,44,94,86,76,30.35,30.29,12,3,12,0.00
2014-5-15,71,64,55,65,60,54,96,86,74,30.31,30.22,22,5,22,0.00
2014-5-16,70,64,61,62,60,59,95,87,73,30.23,29.99,26,8,26,0.02
2014-5-17,66,60,56,62,57,50,99,88,67,30.06,29.88,28,9,28,0.64
2014-5-18,65,58,52,53,48,43,89,70,53,30.10,30.02,14,2,14,0.00
2014-5-19,68,57,51,49,42,35,87,59,33,30.09,30.00,27,5,27,0.00
2014-5-20,69,58,52,54,49,43,90,72,41,30.04,29.97,17,3,17,0.01
2014-5-21,68,59,52,57,53,50,95,81,61,30.00,29.94,12,2,12,0.00
2014-5-22,59,56,54,55,54,52,96,92,84,29.97,29.86,14,2,14,0.37
2014-5-23,62,58,54,56,54,51,96,86,77,29.95,29.88,16,3,16,0.01
2014-5-24,65,57,53,54,51,49,92,81,63,30.07,29.92,25,5,25,0.00
2014-5-25,63,57,54,55,53,51,97,86,69,30.10,30.02,17,4,17,0.00
2014-5-26,67,61,54,59,57,53,98,87,73,30.07,29.83,21,7,21,0.00
2014-5-27,78,63,53,62,57,52,96,83,54,29.91,29.81,18,4,18,0.01
2014-5-28,54,51,48,53,49,45,97,93,90,30.19,29.85,30,9,30,0.01
2014-5-29,60,53,45,50,46,38,95,78,45,30.23,30.16,17,4,17,0.00
2014-5-30,60,54,46,53,47,41,96,80,62,30.18,30.02,16,3,16,0.05
2014-5-31,62,56,51,53,50,43,97,81,54,30.27,30.03,24,5,24,0.04
2014-6-1,70,60,50,54,48,41,92,67,37,30.33,30.24,17,5,17,0.00
2014-6-2,66,61,56,58,54,49,87,80,72,30.27,30.05,21,8,21,0.00
2014-6-3,71,62,57,61,56,46,91,79,59,30.07,29.91,14,3,14,0.00
2014-6-4,63,59,56,60,56,50,98,91,71,29.91,29.78,13,2,13,0.70
2014-6-5,62,60,58,62,60,57,99,98,96,29.80,29.58,21,3,21,0.90
2014-6-6,77,66,57,60,57,54,98,76,49,29.87,29.71,12,2,12,0.00
2014-6-7,74,66,59,63,59,54,90,79,64,29.94,29.87,18,4,18,0.00
2014-6-8,80,68,60,65,61,58,96,80,47,29.94,29.89,13,3,15,0.00
2014-6-9,68,65,63,64,62,60,94,90,83,30.02,29.92,14,4,14,0.00
2014-6-10,68,65,61,66,63,58,98,94,89,30.07,29.96,22,5,22,0.24
2014-6-11,70,64,60,60,56,51,91,77,55,30.17,30.06,19,6,19,0.00
2014-6-12,70,64,60,64,59,54,92,85,78,30.16,30.05,19,5,19,0.00
2014-6-13,70,65,61,68,64,59,99,97,90,30.05,29.77,20,6,20,0.65
2014-6-14,74,67,62,69,64,54,99,93,71,29.90,29.81,10,2,22,0.01
2014-6-15,80,68,57,63,57,53,87,69,48,30.04,29.89,20,3,20,0.00
2014-6-16,74,66,59,60,56,49,90,71,45,30.15,30.03,16,4,16,0.00
2014-6-17,69,66,62,65,63,59,98,90,80,30.11,29.92,20,7,20,0.00
2014-6-18,87,74,63,71,66,62,99,78,51,29.93,29.76,21,4,21,0.06
2014-6-19,75,70,63,68,65,55,95,86,73,29.98,29.90,19,4,19,0.15
2014-6-20,78,67,57,59,53,44,83,63,31,29.97,29.87,14,2,14,0.00
2014-6-21,74,64,56,57,52,46,84,68,39,29.98,29.89,19,4,19,0.00
2014-6-22,73,65,56,59,56,50,94,73,47,30.04,29.92,16,2,16,0.00
2014-6-23,74,66,58,61,58,52,96,76,49,30.19,30.04,14,2,14,0.00
2014-6-24,72,67,61,64,59,54,90,77,61,30.20,30.05,19,7,19,0.00
2014-6-25,72,69,66,70,67,62,97,92,87,30.05,29.90,16,7,19,0.00
2014-6-26,78,69,61,74,66,58,99,93,84,30.00,29.80,22,6,22,0.12
2014-6-27,74,66,59,59,53,45,95,67,38,30.21,29.99,24,4,24,0.00
2014-6-28,75,66,59,63,58,51,92,76,49,30.29,30.20,18,3,18,0.00
2014-6-29,72,68,61,66,63,60,97,87,74,30.28,30.15,17,5,17,0.01
2014-6-30,73,69,66,69,67,64,96,92,86,30.15,29.97,24,8,24,0.00
2014-7-1,74,71,68,71,69,66,98,94,89,29.99,29.88,24,8,24,0.00
2014-7-2,77,73,69,73,71,68,98,93,86,29.99,29.87,21,7,21,0.00
2014-7-3,78,74,71,74,72,70,97,93,83,30.02,29.92,18,5,18,0.00
2014-7-4,75,70,64,73,67,61,94,93,90,30.01,29.68,28,6,28,4.57
2014-7-5,80,70,61,62,56,47,93,65,35,30.04,29.73,25,5,25,0.03
2014-7-6,78,70,64,65,62,57,89,76,51,30.05,29.92,28,9,28,0.00
2014-7-7,72,69,67,68,66,63,91,88,85,29.94,29.77,27,11,27,0.00
2014-7-8,74,71,68,70,68,65,92,90,86,29.86,29.75,23,10,23,0.00
2014-7-9,74,71,69,69,67,65,91,89,84,29.96,29.73,33,9,33,0.00
2014-7-10,81,72,67,70,66,64,90,82,59,30.15,29.95,30,2,30,0.14
2014-7-11,80,72,65,68,64,61,89,78,60,30.23,30.13,13,2,13,0.00
2014-7-12,75,70,63,67,64,60,89,82,71,30.24,30.16,16,5,19,0.00
2014-7-13,76,72,69,70,68,65,88,87,83,30.17,29.95,22,8,22,0.00
2014-7-14,75,72,71,71,68,67,89,88,86,29.96,29.89,19,8,25,0.00
2014-7-15,76,73,71,72,69,68,89,88,87,29.92,29.80,24,10,24,0.01
2014-7-16,73,71,70,69,67,66,88,87,86,29.86,29.77,26,7,26,2.33
2014-7-17,79,71,66,68,64,61,87,80,58,30.08,29.85,18,3,18,0.00
2014-7-18,79,71,64,66,62,57,86,74,47,30.25,30.07,13,2,13,0.00
2014-7-19,75,70,65,67,61,57,86,74,57,30.28,30.21,12,2,12,0.00
2014-7-20,72,68,63,66,62,57,85,80,69,30.22,30.12,15,3,15,0.25
2014-7-21,75,68,63,66,61,58,85,80,69,30.19,30.12,17,3,17,0.17
2014-7-22,76,71,64,69,65,59,84,83,79,30.17,30.04,24,6,24,0.00
2014-7-23,76,73,70,70,67,65,84,83,82,30.04,29.81,25,9,25,0.00
2014-7-24,77,71,66,71,65,60,84,83,78,29.90,29.75,21,2,21,0.34
2014-7-25,78,70,62,65,61,54,84,74,47,30.00,29.89,19,4,19,0.00
2014-7-26,76,71,67,70,65,61,83,81,73,30.01,29.92,23,7,23,0.00
2014-7-27,74,72,70,68,66,64,84,82,80,29.92,29.69,23,8,23,0.10
2014-7-28,78,73,70,72,67,65,85,83,81,29.72,29.50,22,6,22,0.01
2014-7-29,74,70,65,66,63,60,83,78,68,29.96,29.57,20,6,20,0.00
2014-7-30,76,70,63,64,61,57,83,74,61,30.07,29.94,18,4,18,0.00
2014-7-31,76,72,65,68,64,59,82,78,69,30.19,30.06,18,6,18,0.00
2014-8-1,77,72,69,70,66,63,82,80,77,30.25,30.18,14,4,15,0.00
2014-8-2,70,65,61,64,60,55,84,82,80,30.24,30.09,20,3,20,1.21
2014-8-3,68,65,62,62,60,58,85,84,83,30.15,30.05,15,1,15,0.11
2014-8-4,74,70,66,69,65,61,85,83,81,30.06,30.03,22,5,22,0.00
2014-8-5,76,72,69,70,66,64,83,82,81,30.04,29.90,17,4,17,0.00
2014-8-6,79,72,67,70,65,61,83,80,70,29.90,29.77,20,2,20,0.01
2014-8-7,77,69,63,65,61,57,82,75,53,29.95,29.83,19,2,19,0.01
2014-8-8,78,70,62,67,61,56,82,75,53,30.02,29.94,17,2,17,0.00
2014-8-9,80,72,64,67,62,58,81,72,58,30.10,30.00,13,2,13,0.00
2014-8-10,83,73,65,68,64,59,82,73,52,30.15,30.08,12,1,12,0.00
2014-8-11,78,71,66,65,63,60,81,75,57,30.17,30.13,15,3,15,0.00
2014-8-12,80,72,66,68,65,60,82,77,64,30.14,30.03,16,3,16,0.00
2014-8-13,72,70,68,66,64,62,83,81,78,30.03,29.62,28,7,28,0.35
2014-8-14,76,69,64,62,58,53,82,69,48,29.89,29.67,20,2,20,0.00
2014-8-15,74,69,64,63,58,53,81,69,51,29.96,29.84,22,5,22,0.00
2014-8-16,74,68,62,65,60,55,80,75,60,30.01,29.93,24,6,24,0.00
2014-8-17,75,71,66,68,64,58,82,79,71,29.93,29.77,20,3,21,0.01
2014-8-18,79,68,62,65,60,56,81,75,50,29.88,29.79,16,3,19,0.00
2014-8-19,74,66,58,61,57,52,82,72,56,29.97,29.87,14,2,14,0.00
2014-8-20,75,68,61,65,60,56,83,78,64,30.05,29.95,14,2,14,0.00
2014-8-21,76,68,62,67,62,56,82,79,74,30.09,30.02,13,2,13,0.00
2014-8-22,72,68,65,64,61,59,82,79,71,30.08,30.04,14,4,16,0.00
2014-8-23,71,66,60,62,59,54,81,78,68,30.11,30.05,22,4,22,0.00
2014-8-24,73,66,59,61,57,53,81,73,56,30.14,30.10,12,3,15,0.00
2014-8-25,80,70,62,69,62,56,81,76,66,30.16,30.11,13,2,13,0.00
2014-8-26,76,69,63,64,60,55,80,73,54,30.19,30.08,15,3,15,0.00
2014-8-27,76,71,67,68,64,61,80,79,75,30.08,29.86,22,7,22,0.00
2014-8-28,83,74,65,66,62,53,81,68,48,29.98,29.77,15,3,15,0.00
2014-8-29,70,65,58,60,55,52,80,71,61,30.28,29.98,17,4,17,0.00
2014-8-30,71,65,58,62,58,52,81,76,67,30.33,30.17,16,4,16,0.00
2014-8-31,74,72,68,68,65,62,83,80,78,30.17,29.98,23,8,23,0.69
2014-9-1,77,72,71,71,66,65,83,81,79,30.01,29.92,18,5,18,0.00
2014-9-2,77,73,70,70,67,64,82,81,79,29.96,29.78,16,5,16,0.01
2014-9-3,82,75,68,68,65,60,81,73,52,30.09,29.73,19,4,19,0.00
2014-9-4,80,72,65,67,63,59,81,72,50,30.20,30.08,17,3,19,0.00
2014-9-5,77,73,70,70,66,64,81,80,79,30.19,30.02,17,6,19,0.01
2014-9-6,76,74,72,70,67,66,82,81,80,30.02,29.80,22,8,22,0.00
2014-9-7,77,69,63,68,60,56,82,75,50,30.20,29.89,19,3,19,0.22
2014-9-8,72,66,60,63,57,54,82,73,60,30.36,30.20,17,4,17,0.00
2014-9-9,71,67,64,61,59,55,81,76,69,30.33,30.15,17,6,17,0.00
2014-9-10,72,67,63,63,61,57,82,79,73,30.15,30.04,15,4,16,0.00
2014-9-11,75,69,62,68,62,56,82,80,75,30.05,29.82,21,5,21,0.00
2014-9-12,71,64,59,65,57,53,82,76,63,30.22,29.88,14,4,16,0.00
2014-9-13,69,62,55,58,55,50,85,77,64,30.25,30.08,15,3,15,0.21
2014-9-14,68,60,53,56,51,44,84,73,47,30.21,30.09,16,2,16,0.00
2014-9-15,68,60,50,55,52,45,83,75,58,30.23,30.09,11,2,11,0.00